sensor_id;sensor_type;location;lat;lon;timestamp;temperature;humidity
3334;DHT22;1679;50.392;8.008;2022-07-04T00:02:08;17.50;99.90
3334;DHT22;1679;50.392;8.008;2022-07-04T00:04:34;17.40;99.90
3334;DHT22;1679;50.392;8.008;2022-07-04T00:06:59;17.40;99.90
3334;DHT22;1679;50.392;8.008;2022-07-04T00:09:25;17.30;99.90
3334;DHT22;1679;50.392;8.008;2022-07-04T00:11:50;17.20;99.90
3334;DHT22;1679;50.392;8.008;2022-07-04T00:14:16;17.10;99.90
3334;DHT22;1679;50.392;8.008;2022-07-04T00:16:42;17.10;99.90
3334;DHT22;1679;50.392;8.008;2022-07-04T00:19:08;17.10;99.90
3334;DHT22;1679;50.392;8.008;2022-07-04T00:21:33;17.20;99.90
3334;DHT22;1679;50.392;8.008;2022-07-04T00:24:00;17.10;99.90
3334;DHT22;1679;50.392;8.008;2022-07-04T00:26:25;17.00;99.90
3334;DHT22;1679;50.392;8.008;2022-07-04T00:28:51;16.80;99.90
3334;DHT22;1679;50.392;8.008;2022-07-04T00:31:16;16.70;99.90
3334;DHT22;1679;50.392;8.008;2022-07-04T00:33:42;16.60;99.90
3334;DHT22;1679;50.392;8.008;2022-07-04T00:36:07;16.50;99.90
3334;DHT22;1679;50.392;8.008;2022-07-04T00:38:33;16.50;99.90
3334;DHT22;1679;50.392;8.008;2022-07-04T00:40:58;16.40;99.90
3334;DHT22;1679;50.392;8.008;2022-07-04T00:43:27;16.40;99.90
3334;DHT22;1679;50.392;8.008;2022-07-04T00:45:53;16.40;99.90
3334;DHT22;1679;50.392;8.008;2022-07-04T00:48:19;16.30;99.90
3334;DHT22;1679;50.392;8.008;2022-07-04T00:50:48;16.20;99.90
3334;DHT22;1679;50.392;8.008;2022-07-04T00:53:14;16.10;99.90
3334;DHT22;1679;50.392;8.008;2022-07-04T00:55:41;16.10;99.90
3334;DHT22;1679;50.392;8.008;2022-07-04T00:58:07;16.00;99.90
3334;DHT22;1679;50.392;8.008;2022-07-04T01:00:33;16.00;99.90
3334;DHT22;1679;50.392;8.008;2022-07-04T01:02:59;16.00;99.90
3334;DHT22;1679;50.392;8.008;2022-07-04T01:05:25;16.00;99.90
3334;DHT22;1679;50.392;8.008;2022-07-04T01:07:50;15.90;99.90
3334;DHT22;1679;50.392;8.008;2022-07-04T01:13:38;15.80;99.90
3334;DHT22;1679;50.392;8.008;2022-07-04T01:16:06;15.80;99.90
3334;DHT22;1679;50.392;8.008;2022-07-04T01:18:31;15.80;99.90
3334;DHT22;1679;50.392;8.008;2022-07-04T01:20:57;15.70;99.90
3334;DHT22;1679;50.392;8.008;2022-07-04T01:23:23;15.70;99.90
3334;DHT22;1679;50.392;8.008;2022-07-04T01:25:48;15.70;99.90
3334;DHT22;1679;50.392;8.008;2022-07-04T01:28:16;15.70;99.90
3334;DHT22;1679;50.392;8.008;2022-07-04T01:30:41;15.70;99.90
3334;DHT22;1679;50.392;8.008;2022-07-04T01:33:07;15.70;99.90
3334;DHT22;1679;50.392;8.008;2022-07-04T01:35:32;15.70;99.90
3334;DHT22;1679;50.392;8.008;2022-07-04T01:37:58;15.70;99.90
3334;DHT22;1679;50.392;8.008;2022-07-04T01:40:24;15.70;99.90
3334;DHT22;1679;50.392;8.008;2022-07-04T01:42:49;15.70;99.90
3334;DHT22;1679;50.392;8.008;2022-07-04T01:45:15;15.70;99.90
3334;DHT22;1679;50.392;8.008;2022-07-04T01:47:41;15.60;99.90
3334;DHT22;1679;50.392;8.008;2022-07-04T01:50:08;15.60;99.90
3334;DHT22;1679;50.392;8.008;2022-07-04T01:52:35;15.60;99.90
3334;DHT22;1679;50.392;8.008;2022-07-04T01:55:01;15.60;99.90
3334;DHT22;1679;50.392;8.008;2022-07-04T01:57:26;15.60;99.90
3334;DHT22;1679;50.392;8.008;2022-07-04T02:03:14;15.60;99.90
3334;DHT22;1679;50.392;8.008;2022-07-04T02:05:42;15.50;99.90
3334;DHT22;1679;50.392;8.008;2022-07-04T02:08:08;15.50;99.90
3334;DHT22;1679;50.392;8.008;2022-07-04T02:10:34;15.50;99.90
3334;DHT22;1679;50.392;8.008;2022-07-04T02:13:00;15.40;99.90
3334;DHT22;1679;50.392;8.008;2022-07-04T02:15:39;15.40;99.90
3334;DHT22;1679;50.392;8.008;2022-07-04T02:18:09;15.40;99.90
3334;DHT22;1679;50.392;8.008;2022-07-04T02:20:36;15.30;99.90
3334;DHT22;1679;50.392;8.008;2022-07-04T02:23:03;15.30;99.90
3334;DHT22;1679;50.392;8.008;2022-07-04T02:25:29;15.20;99.90
3334;DHT22;1679;50.392;8.008;2022-07-04T02:27:55;15.30;99.90
3334;DHT22;1679;50.392;8.008;2022-07-04T02:30:22;15.20;99.90
3334;DHT22;1679;50.392;8.008;2022-07-04T02:32:48;15.20;99.90
3334;DHT22;1679;50.392;8.008;2022-07-04T02:35:13;15.20;99.90
3334;DHT22;1679;50.392;8.008;2022-07-04T02:37:39;15.20;99.90
3334;DHT22;1679;50.392;8.008;2022-07-04T02:40:06;15.20;99.90
3334;DHT22;1679;50.392;8.008;2022-07-04T02:42:32;15.10;99.90
3334;DHT22;1679;50.392;8.008;2022-07-04T02:44:58;15.10;99.90
3334;DHT22;1679;50.392;8.008;2022-07-04T02:47:24;15.00;99.90
3334;DHT22;1679;50.392;8.008;2022-07-04T02:49:49;15.00;99.90
3334;DHT22;1679;50.392;8.008;2022-07-04T02:52:15;15.00;99.90
3334;DHT22;1679;50.392;8.008;2022-07-04T02:54:41;15.00;99.90
3334;DHT22;1679;50.392;8.008;2022-07-04T02:57:07;14.90;99.90
3334;DHT22;1679;50.392;8.008;2022-07-04T02:59:33;14.90;99.90
3334;DHT22;1679;50.392;8.008;2022-07-04T03:01:58;14.90;99.90
3334;DHT22;1679;50.392;8.008;2022-07-04T03:04:24;14.90;99.90
3334;DHT22;1679;50.392;8.008;2022-07-04T03:06:49;14.80;99.90
3334;DHT22;1679;50.392;8.008;2022-07-04T03:09:16;14.80;99.90
3334;DHT22;1679;50.392;8.008;2022-07-04T03:11:43;14.80;99.90
3334;DHT22;1679;50.392;8.008;2022-07-04T03:14:08;14.70;99.90
3334;DHT22;1679;50.392;8.008;2022-07-04T03:16:34;14.70;99.90
3334;DHT22;1679;50.392;8.008;2022-07-04T03:18:59;14.70;99.90
3334;DHT22;1679;50.392;8.008;2022-07-04T03:21:25;14.60;99.90
3334;DHT22;1679;50.392;8.008;2022-07-04T03:23:51;14.60;99.90
3334;DHT22;1679;50.392;8.008;2022-07-04T03:26:27;14.60;99.90
3334;DHT22;1679;50.392;8.008;2022-07-04T03:28:53;14.60;99.90
3334;DHT22;1679;50.392;8.008;2022-07-04T03:31:19;14.50;99.90
3334;DHT22;1679;50.392;8.008;2022-07-04T03:33:44;14.50;99.90
3334;DHT22;1679;50.392;8.008;2022-07-04T03:36:10;14.50;99.90
3334;DHT22;1679;50.392;8.008;2022-07-04T03:38:36;14.50;99.90
3334;DHT22;1679;50.392;8.008;2022-07-04T03:41:01;14.50;99.90
3334;DHT22;1679;50.392;8.008;2022-07-04T03:43:27;14.50;99.90
3334;DHT22;1679;50.392;8.008;2022-07-04T03:45:52;14.50;99.90
3334;DHT22;1679;50.392;8.008;2022-07-04T03:48:18;14.50;99.90
3334;DHT22;1679;50.392;8.008;2022-07-04T03:50:43;14.50;99.90
3334;DHT22;1679;50.392;8.008;2022-07-04T03:53:09;14.60;99.90
3334;DHT22;1679;50.392;8.008;2022-07-04T03:55:34;14.60;99.90
3334;DHT22;1679;50.392;8.008;2022-07-04T03:58:00;14.70;99.90
3334;DHT22;1679;50.392;8.008;2022-07-04T04:00:26;14.70;99.90
3334;DHT22;1679;50.392;8.008;2022-07-04T04:02:52;14.70;99.90
3334;DHT22;1679;50.392;8.008;2022-07-04T04:05:17;14.70;99.90
3334;DHT22;1679;50.392;8.008;2022-07-04T04:07:59;14.70;99.90
3334;DHT22;1679;50.392;8.008;2022-07-04T04:10:26;14.70;99.90
3334;DHT22;1679;50.392;8.008;2022-07-04T04:12:52;14.70;99.90
3334;DHT22;1679;50.392;8.008;2022-07-04T04:15:18;14.70;99.90
3334;DHT22;1679;50.392;8.008;2022-07-04T04:17:43;14.80;99.90
3334;DHT22;1679;50.392;8.008;2022-07-04T04:20:09;14.80;99.90
3334;DHT22;1679;50.392;8.008;2022-07-04T04:22:35;14.80;99.90
3334;DHT22;1679;50.392;8.008;2022-07-04T04:25:00;14.80;99.90
3334;DHT22;1679;50.392;8.008;2022-07-04T04:27:26;14.80;99.90
3334;DHT22;1679;50.392;8.008;2022-07-04T04:29:52;14.70;99.90
3334;DHT22;1679;50.392;8.008;2022-07-04T04:32:17;14.70;99.90
3334;DHT22;1679;50.392;8.008;2022-07-04T04:34:43;14.70;99.90
3334;DHT22;1679;50.392;8.008;2022-07-04T04:37:09;14.70;99.90
3334;DHT22;1679;50.392;8.008;2022-07-04T04:39:34;14.80;99.90
3334;DHT22;1679;50.392;8.008;2022-07-04T04:42:00;14.80;99.90
3334;DHT22;1679;50.392;8.008;2022-07-04T04:44:25;14.80;99.90
3334;DHT22;1679;50.392;8.008;2022-07-04T04:46:51;14.90;99.90
3334;DHT22;1679;50.392;8.008;2022-07-04T04:49:16;14.90;99.90
3334;DHT22;1679;50.392;8.008;2022-07-04T04:51:42;14.90;99.90
3334;DHT22;1679;50.392;8.008;2022-07-04T04:54:08;14.90;99.90
3334;DHT22;1679;50.392;8.008;2022-07-04T04:56:34;15.00;99.90
3334;DHT22;1679;50.392;8.008;2022-07-04T04:58:59;15.10;99.90
3334;DHT22;1679;50.392;8.008;2022-07-04T05:01:25;15.10;99.90
3334;DHT22;1679;50.392;8.008;2022-07-04T05:03:50;15.10;99.90
3334;DHT22;1679;50.392;8.008;2022-07-04T05:06:16;15.20;99.90
3334;DHT22;1679;50.392;8.008;2022-07-04T05:08:41;15.20;99.90
3334;DHT22;1679;50.392;8.008;2022-07-04T05:11:07;15.30;99.90
3334;DHT22;1679;50.392;8.008;2022-07-04T05:13:33;15.30;99.90
3334;DHT22;1679;50.392;8.008;2022-07-04T05:15:58;15.40;99.90
3334;DHT22;1679;50.392;8.008;2022-07-04T05:18:24;15.40;99.90
3334;DHT22;1679;50.392;8.008;2022-07-04T05:20:50;15.50;99.90
3334;DHT22;1679;50.392;8.008;2022-07-04T05:23:15;15.60;99.90
3334;DHT22;1679;50.392;8.008;2022-07-04T05:25:41;15.60;99.90
3334;DHT22;1679;50.392;8.008;2022-07-04T05:28:06;15.70;99.90
3334;DHT22;1679;50.392;8.008;2022-07-04T05:30:32;15.80;99.90
3334;DHT22;1679;50.392;8.008;2022-07-04T05:32:59;15.90;99.90
3334;DHT22;1679;50.392;8.008;2022-07-04T05:35:26;15.90;99.90
3334;DHT22;1679;50.392;8.008;2022-07-04T05:37:53;16.00;99.90
3334;DHT22;1679;50.392;8.008;2022-07-04T05:40:18;16.10;99.90
3334;DHT22;1679;50.392;8.008;2022-07-04T05:42:46;16.20;99.90
3334;DHT22;1679;50.392;8.008;2022-07-04T05:45:11;16.20;99.90
3334;DHT22;1679;50.392;8.008;2022-07-04T05:47:37;16.30;99.90
3334;DHT22;1679;50.392;8.008;2022-07-04T05:50:03;16.30;99.90
3334;DHT22;1679;50.392;8.008;2022-07-04T05:52:28;16.30;99.90
3334;DHT22;1679;50.392;8.008;2022-07-04T05:54:54;16.30;99.90
3334;DHT22;1679;50.392;8.008;2022-07-04T05:57:19;16.40;99.90
3334;DHT22;1679;50.392;8.008;2022-07-04T05:59:45;16.50;99.90
3334;DHT22;1679;50.392;8.008;2022-07-04T06:02:11;16.50;99.90
3334;DHT22;1679;50.392;8.008;2022-07-04T06:04:36;16.60;99.90
3334;DHT22;1679;50.392;8.008;2022-07-04T06:07:02;16.70;99.90
3334;DHT22;1679;50.392;8.008;2022-07-04T06:09:28;16.80;99.90
3334;DHT22;1679;50.392;8.008;2022-07-04T06:11:53;16.90;99.90
3334;DHT22;1679;50.392;8.008;2022-07-04T06:14:19;17.00;99.90
3334;DHT22;1679;50.392;8.008;2022-07-04T06:16:44;17.10;99.90
3334;DHT22;1679;50.392;8.008;2022-07-04T06:19:10;17.10;99.90
3334;DHT22;1679;50.392;8.008;2022-07-04T06:21:35;17.30;99.90
3334;DHT22;1679;50.392;8.008;2022-07-04T06:24:01;17.40;99.90
3334;DHT22;1679;50.392;8.008;2022-07-04T06:26:28;17.60;99.90
3334;DHT22;1679;50.392;8.008;2022-07-04T06:28:53;17.70;99.90
3334;DHT22;1679;50.392;8.008;2022-07-04T06:31:19;17.90;99.90
3334;DHT22;1679;50.392;8.008;2022-07-04T06:33:45;18.10;99.90
3334;DHT22;1679;50.392;8.008;2022-07-04T06:36:29;18.20;99.90
3334;DHT22;1679;50.392;8.008;2022-07-04T06:38:55;18.40;99.90
3334;DHT22;1679;50.392;8.008;2022-07-04T06:41:21;18.60;99.90
3334;DHT22;1679;50.392;8.008;2022-07-04T06:43:46;18.80;99.90
3334;DHT22;1679;50.392;8.008;2022-07-04T06:46:12;19.00;99.90
3334;DHT22;1679;50.392;8.008;2022-07-04T06:48:37;19.30;99.90
3334;DHT22;1679;50.392;8.008;2022-07-04T06:51:03;19.70;99.90
3334;DHT22;1679;50.392;8.008;2022-07-04T06:53:29;20.10;99.90
3334;DHT22;1679;50.392;8.008;2022-07-04T06:55:54;20.40;99.90
3334;DHT22;1679;50.392;8.008;2022-07-04T06:58:20;20.90;99.90
3334;DHT22;1679;50.392;8.008;2022-07-04T07:00:45;21.10;99.90
3334;DHT22;1679;50.392;8.008;2022-07-04T07:03:11;21.40;99.90
3334;DHT22;1679;50.392;8.008;2022-07-04T07:05:37;21.60;99.90
3334;DHT22;1679;50.392;8.008;2022-07-04T07:08:03;22.00;99.90
3334;DHT22;1679;50.392;8.008;2022-07-04T07:10:29;22.30;99.90
3334;DHT22;1679;50.392;8.008;2022-07-04T07:12:58;22.50;99.90
3334;DHT22;1679;50.392;8.008;2022-07-04T07:15:23;22.90;99.90
3334;DHT22;1679;50.392;8.008;2022-07-04T07:17:49;23.30;99.90
3334;DHT22;1679;50.392;8.008;2022-07-04T07:20:14;23.30;99.90
3334;DHT22;1679;50.392;8.008;2022-07-04T07:22:40;22.90;99.90
3334;DHT22;1679;50.392;8.008;2022-07-04T07:25:07;22.90;99.90
3334;DHT22;1679;50.392;8.008;2022-07-04T07:27:33;23.10;99.90
3334;DHT22;1679;50.392;8.008;2022-07-04T07:29:58;23.50;99.90
3334;DHT22;1679;50.392;8.008;2022-07-04T07:32:24;23.20;99.90
3334;DHT22;1679;50.392;8.008;2022-07-04T07:34:49;23.30;99.90
3334;DHT22;1679;50.392;8.008;2022-07-04T07:37:15;23.50;99.90
3334;DHT22;1679;50.392;8.008;2022-07-04T07:39:43;23.50;99.90
3334;DHT22;1679;50.392;8.008;2022-07-04T07:42:08;23.50;99.90
3334;DHT22;1679;50.392;8.008;2022-07-04T07:44:34;23.40;99.90
3334;DHT22;1679;50.392;8.008;2022-07-04T07:47:00;23.30;99.90
3334;DHT22;1679;50.392;8.008;2022-07-04T07:49:25;23.20;99.90
3334;DHT22;1679;50.392;8.008;2022-07-04T07:51:51;23.40;99.90
3334;DHT22;1679;50.392;8.008;2022-07-04T07:54:16;23.80;99.90
3334;DHT22;1679;50.392;8.008;2022-07-04T07:56:42;24.10;99.90
3334;DHT22;1679;50.392;8.008;2022-07-04T07:59:08;24.30;99.90
3334;DHT22;1679;50.392;8.008;2022-07-04T08:01:33;24.30;99.80
3334;DHT22;1679;50.392;8.008;2022-07-04T08:03:59;24.00;98.30
3334;DHT22;1679;50.392;8.008;2022-07-04T08:06:43;24.00;99.70
3334;DHT22;1679;50.392;8.008;2022-07-04T08:09:09;24.10;99.90
3334;DHT22;1679;50.392;8.008;2022-07-04T08:11:34;23.80;94.50
3334;DHT22;1679;50.392;8.008;2022-07-04T08:14:00;23.80;96.20
3334;DHT22;1679;50.392;8.008;2022-07-04T08:16:25;24.20;96.70
3334;DHT22;1679;50.392;8.008;2022-07-04T08:18:51;24.30;95.40
3334;DHT22;1679;50.392;8.008;2022-07-04T08:21:16;24.10;96.10
3334;DHT22;1679;50.392;8.008;2022-07-04T08:23:42;23.90;96.60
3334;DHT22;1679;50.392;8.008;2022-07-04T08:26:08;24.50;96.90
3334;DHT22;1679;50.392;8.008;2022-07-04T08:28:33;24.30;96.80
3334;DHT22;1679;50.392;8.008;2022-07-04T08:30:59;24.00;97.10
3334;DHT22;1679;50.392;8.008;2022-07-04T08:33:25;23.80;96.90
3334;DHT22;1679;50.392;8.008;2022-07-04T08:35:51;23.80;95.90
3334;DHT22;1679;50.392;8.008;2022-07-04T08:38:17;23.90;96.60
3334;DHT22;1679;50.392;8.008;2022-07-04T08:40:42;24.60;96.10
3334;DHT22;1679;50.392;8.008;2022-07-04T08:43:12;25.10;96.50
3334;DHT22;1679;50.392;8.008;2022-07-04T08:45:40;24.90;94.70
3334;DHT22;1679;50.392;8.008;2022-07-04T08:48:07;24.90;93.70
3334;DHT22;1679;50.392;8.008;2022-07-04T08:50:39;24.20;94.60
3334;DHT22;1679;50.392;8.008;2022-07-04T08:53:10;23.80;94.40
3334;DHT22;1679;50.392;8.008;2022-07-04T08:55:37;23.70;95.20
3334;DHT22;1679;50.392;8.008;2022-07-04T08:58:23;24.30;94.50
3334;DHT22;1679;50.392;8.008;2022-07-04T09:01:01;24.40;93.60
3334;DHT22;1679;50.392;8.008;2022-07-04T09:03:28;24.90;94.40
3334;DHT22;1679;50.392;8.008;2022-07-04T09:05:55;24.60;94.10
3334;DHT22;1679;50.392;8.008;2022-07-04T09:08:21;24.50;94.70
3334;DHT22;1679;50.392;8.008;2022-07-04T09:10:48;24.50;94.10
3334;DHT22;1679;50.392;8.008;2022-07-04T09:13:14;24.50;93.30
3334;DHT22;1679;50.392;8.008;2022-07-04T09:15:41;24.10;92.30
3334;DHT22;1679;50.392;8.008;2022-07-04T09:18:20;24.30;94.70
3334;DHT22;1679;50.392;8.008;2022-07-04T09:20:45;24.50;94.30
3334;DHT22;1679;50.392;8.008;2022-07-04T09:23:22;24.80;94.10
3334;DHT22;1679;50.392;8.008;2022-07-04T09:25:49;24.90;92.90
3334;DHT22;1679;50.392;8.008;2022-07-04T09:28:30;25.00;93.50
3334;DHT22;1679;50.392;8.008;2022-07-04T09:30:56;24.50;93.30
3334;DHT22;1679;50.392;8.008;2022-07-04T09:33:21;24.20;93.90
3334;DHT22;1679;50.392;8.008;2022-07-04T09:35:48;24.40;93.90
3334;DHT22;1679;50.392;8.008;2022-07-04T09:38:21;24.50;93.70
3334;DHT22;1679;50.392;8.008;2022-07-04T09:40:52;24.20;93.20
3334;DHT22;1679;50.392;8.008;2022-07-04T09:43:36;24.50;94.20
3334;DHT22;1679;50.392;8.008;2022-07-04T09:46:02;24.80;93.60
3334;DHT22;1679;50.392;8.008;2022-07-04T09:48:50;24.50;94.20
3334;DHT22;1679;50.392;8.008;2022-07-04T09:51:41;24.10;93.90
3334;DHT22;1679;50.392;8.008;2022-07-04T09:54:24;24.20;94.90
3334;DHT22;1679;50.392;8.008;2022-07-04T09:56:55;24.70;94.50
3334;DHT22;1679;50.392;8.008;2022-07-04T09:59:22;24.90;93.30
3334;DHT22;1679;50.392;8.008;2022-07-04T10:01:48;24.60;93.30
3334;DHT22;1679;50.392;8.008;2022-07-04T10:04:14;24.50;94.00
3334;DHT22;1679;50.392;8.008;2022-07-04T10:06:41;24.20;94.50
3334;DHT22;1679;50.392;8.008;2022-07-04T10:09:13;24.10;95.50
3334;DHT22;1679;50.392;8.008;2022-07-04T10:11:40;24.00;95.30
3334;DHT22;1679;50.392;8.008;2022-07-04T10:14:08;23.70;95.80
3334;DHT22;1679;50.392;8.008;2022-07-04T10:16:35;23.60;94.30
3334;DHT22;1679;50.392;8.008;2022-07-04T10:19:01;23.60;94.50
3334;DHT22;1679;50.392;8.008;2022-07-04T10:21:28;23.50;94.80
3334;DHT22;1679;50.392;8.008;2022-07-04T10:23:53;23.80;95.80
3334;DHT22;1679;50.392;8.008;2022-07-04T10:26:20;23.80;94.50
3334;DHT22;1679;50.392;8.008;2022-07-04T10:28:47;24.20;95.80
3334;DHT22;1679;50.392;8.008;2022-07-04T10:31:13;24.50;93.70
3334;DHT22;1679;50.392;8.008;2022-07-04T10:33:40;24.10;94.10
3334;DHT22;1679;50.392;8.008;2022-07-04T10:36:17;24.00;92.30
3334;DHT22;1679;50.392;8.008;2022-07-04T10:38:54;24.00;92.60
3334;DHT22;1679;50.392;8.008;2022-07-04T10:41:21;24.00;94.50
3334;DHT22;1679;50.392;8.008;2022-07-04T10:51:14;24.30;95.20
3334;DHT22;1679;50.392;8.008;2022-07-04T10:54:02;24.40;95.90
3334;DHT22;1679;50.392;8.008;2022-07-04T10:58:57;24.60;95.70
3334;DHT22;1679;50.392;8.008;2022-07-04T11:01:26;24.60;94.60
3334;DHT22;1679;50.392;8.008;2022-07-04T11:03:53;24.40;93.70
3334;DHT22;1679;50.392;8.008;2022-07-04T11:09:24;23.90;95.80
3334;DHT22;1679;50.392;8.008;2022-07-04T11:12:02;23.80;96.40
3334;DHT22;1679;50.392;8.008;2022-07-04T11:14:42;23.70;95.80
3334;DHT22;1679;50.392;8.008;2022-07-04T11:19:39;23.50;95.80
3334;DHT22;1679;50.392;8.008;2022-07-04T11:22:06;23.30;95.40
3334;DHT22;1679;50.392;8.008;2022-07-04T11:24:32;23.30;94.90
3334;DHT22;1679;50.392;8.008;2022-07-04T11:26:58;23.30;94.70
3334;DHT22;1679;50.392;8.008;2022-07-04T11:29:24;23.60;96.20
3334;DHT22;1679;50.392;8.008;2022-07-04T11:31:51;23.80;95.90
3334;DHT22;1679;50.392;8.008;2022-07-04T11:34:17;23.70;96.60
3334;DHT22;1679;50.392;8.008;2022-07-04T11:36:45;23.60;96.90
3334;DHT22;1679;50.392;8.008;2022-07-04T11:39:13;23.50;96.20
3334;DHT22;1679;50.392;8.008;2022-07-04T11:41:43;23.30;95.00
3334;DHT22;1679;50.392;8.008;2022-07-04T11:44:47;23.60;96.20
3334;DHT22;1679;50.392;8.008;2022-07-04T11:47:39;24.10;96.10
3334;DHT22;1679;50.392;8.008;2022-07-04T11:50:08;23.90;94.70
3334;DHT22;1679;50.392;8.008;2022-07-04T11:55:07;23.70;96.70
3334;DHT22;1679;50.392;8.008;2022-07-04T11:57:38;24.00;96.60
3334;DHT22;1679;50.392;8.008;2022-07-04T12:00:09;24.10;94.80
3334;DHT22;1679;50.392;8.008;2022-07-04T12:02:36;24.20;94.50
3334;DHT22;1679;50.392;8.008;2022-07-04T12:05:04;24.40;96.00
3334;DHT22;1679;50.392;8.008;2022-07-04T12:07:32;24.30;94.70
3334;DHT22;1679;50.392;8.008;2022-07-04T12:10:11;24.30;95.80
3334;DHT22;1679;50.392;8.008;2022-07-04T12:12:58;24.30;96.00
3334;DHT22;1679;50.392;8.008;2022-07-04T12:15:31;24.40;95.20
3334;DHT22;1679;50.392;8.008;2022-07-04T12:18:01;24.40;95.40
3334;DHT22;1679;50.392;8.008;2022-07-04T12:20:27;24.40;95.00
3334;DHT22;1679;50.392;8.008;2022-07-04T12:22:58;24.40;96.20
3334;DHT22;1679;50.392;8.008;2022-07-04T12:25:32;24.50;95.70
3334;DHT22;1679;50.392;8.008;2022-07-04T12:28:05;24.30;95.20
3334;DHT22;1679;50.392;8.008;2022-07-04T12:30:39;24.10;95.10
3334;DHT22;1679;50.392;8.008;2022-07-04T12:33:08;23.90;96.40
3334;DHT22;1679;50.392;8.008;2022-07-04T12:38:05;23.80;96.90
3334;DHT22;1679;50.392;8.008;2022-07-04T12:40:33;23.90;95.30
3334;DHT22;1679;50.392;8.008;2022-07-04T12:42:59;24.00;95.40
3334;DHT22;1679;50.392;8.008;2022-07-04T12:45:25;24.10;94.90
3334;DHT22;1679;50.392;8.008;2022-07-04T12:47:51;24.10;94.00
3334;DHT22;1679;50.392;8.008;2022-07-04T12:50:28;24.20;97.10
3334;DHT22;1679;50.392;8.008;2022-07-04T12:52:53;24.30;95.90
3334;DHT22;1679;50.392;8.008;2022-07-04T12:55:19;24.10;95.30
3334;DHT22;1679;50.392;8.008;2022-07-04T12:57:44;23.80;94.70
3334;DHT22;1679;50.392;8.008;2022-07-04T13:00:10;23.80;95.00
3334;DHT22;1679;50.392;8.008;2022-07-04T13:02:37;23.70;96.30
3334;DHT22;1679;50.392;8.008;2022-07-04T13:05:03;23.80;96.40
3334;DHT22;1679;50.392;8.008;2022-07-04T13:07:29;23.70;95.10
3334;DHT22;1679;50.392;8.008;2022-07-04T13:09:55;23.60;95.50
3334;DHT22;1679;50.392;8.008;2022-07-04T13:12:21;23.60;95.80
3334;DHT22;1679;50.392;8.008;2022-07-04T13:14:50;23.60;96.40
3334;DHT22;1679;50.392;8.008;2022-07-04T13:17:15;23.60;98.40
3334;DHT22;1679;50.392;8.008;2022-07-04T13:19:41;23.80;95.70
3334;DHT22;1679;50.392;8.008;2022-07-04T13:22:06;23.90;95.30
3334;DHT22;1679;50.392;8.008;2022-07-04T13:24:33;23.80;94.60
3334;DHT22;1679;50.392;8.008;2022-07-04T13:26:58;23.60;95.40
3334;DHT22;1679;50.392;8.008;2022-07-04T13:29:24;23.60;96.90
3334;DHT22;1679;50.392;8.008;2022-07-04T13:31:49;23.70;97.90
3334;DHT22;1679;50.392;8.008;2022-07-04T13:34:16;23.80;94.70
3334;DHT22;1679;50.392;8.008;2022-07-04T13:36:41;23.70;95.70
3334;DHT22;1679;50.392;8.008;2022-07-04T13:39:07;23.70;96.30
3334;DHT22;1679;50.392;8.008;2022-07-04T13:41:33;23.90;95.80
3334;DHT22;1679;50.392;8.008;2022-07-04T13:44:03;24.00;95.60
3334;DHT22;1679;50.392;8.008;2022-07-04T13:46:29;24.10;95.10
3334;DHT22;1679;50.392;8.008;2022-07-04T13:48:54;24.10;95.40
3334;DHT22;1679;50.392;8.008;2022-07-04T13:51:20;24.10;95.90
3334;DHT22;1679;50.392;8.008;2022-07-04T13:53:45;24.00;95.30
3334;DHT22;1679;50.392;8.008;2022-07-04T13:56:12;24.00;95.30
3334;DHT22;1679;50.392;8.008;2022-07-04T13:58:41;24.00;95.00
3334;DHT22;1679;50.392;8.008;2022-07-04T14:01:07;24.10;96.60
3334;DHT22;1679;50.392;8.008;2022-07-04T14:03:32;24.10;95.70
3334;DHT22;1679;50.392;8.008;2022-07-04T14:05:58;24.00;95.40
3334;DHT22;1679;50.392;8.008;2022-07-04T14:08:23;24.00;95.20
3334;DHT22;1679;50.392;8.008;2022-07-04T14:10:49;23.90;96.00
3334;DHT22;1679;50.392;8.008;2022-07-04T14:13:14;23.90;96.00
3334;DHT22;1679;50.392;8.008;2022-07-04T14:15:40;24.00;95.80
3334;DHT22;1679;50.392;8.008;2022-07-04T14:18:06;24.00;95.00
3334;DHT22;1679;50.392;8.008;2022-07-04T14:20:36;24.10;95.70
3334;DHT22;1679;50.392;8.008;2022-07-04T14:23:02;24.30;95.20
3334;DHT22;1679;50.392;8.008;2022-07-04T14:25:27;24.30;96.40
3334;DHT22;1679;50.392;8.008;2022-07-04T14:27:53;24.30;96.70
3334;DHT22;1679;50.392;8.008;2022-07-04T14:30:18;24.30;95.70
3334;DHT22;1679;50.392;8.008;2022-07-04T14:32:44;24.30;95.50
3334;DHT22;1679;50.392;8.008;2022-07-04T14:35:09;24.30;95.40
3334;DHT22;1679;50.392;8.008;2022-07-04T14:37:35;24.30;95.20
3334;DHT22;1679;50.392;8.008;2022-07-04T14:40:00;24.40;95.50
3334;DHT22;1679;50.392;8.008;2022-07-04T14:42:26;24.40;95.30
3334;DHT22;1679;50.392;8.008;2022-07-04T14:44:52;24.40;95.90
3334;DHT22;1679;50.392;8.008;2022-07-04T14:47:17;24.30;94.20
3334;DHT22;1679;50.392;8.008;2022-07-04T14:49:43;24.30;95.50
3334;DHT22;1679;50.392;8.008;2022-07-04T14:52:10;24.30;94.90
3334;DHT22;1679;50.392;8.008;2022-07-04T14:54:36;24.20;95.30
3334;DHT22;1679;50.392;8.008;2022-07-04T14:57:01;24.20;95.90
3334;DHT22;1679;50.392;8.008;2022-07-04T14:59:27;24.20;94.30
3334;DHT22;1679;50.392;8.008;2022-07-04T15:01:52;24.10;94.90
3334;DHT22;1679;50.392;8.008;2022-07-04T15:04:18;24.10;95.00
3334;DHT22;1679;50.392;8.008;2022-07-04T15:06:44;24.10;94.20
3334;DHT22;1679;50.392;8.008;2022-07-04T15:09:10;24.10;94.00
3334;DHT22;1679;50.392;8.008;2022-07-04T15:11:35;24.00;94.40
3334;DHT22;1679;50.392;8.008;2022-07-04T15:14:01;23.90;95.10
3334;DHT22;1679;50.392;8.008;2022-07-04T15:16:26;23.80;95.10
3334;DHT22;1679;50.392;8.008;2022-07-04T15:18:53;23.90;94.60
3334;DHT22;1679;50.392;8.008;2022-07-04T15:21:18;23.90;94.60
3334;DHT22;1679;50.392;8.008;2022-07-04T15:24:02;24.10;95.30
3334;DHT22;1679;50.392;8.008;2022-07-04T15:26:45;24.10;94.50
3334;DHT22;1679;50.392;8.008;2022-07-04T15:29:12;24.00;94.30
3334;DHT22;1679;50.392;8.008;2022-07-04T15:31:37;24.00;94.30
3334;DHT22;1679;50.392;8.008;2022-07-04T15:34:03;23.90;94.20
3334;DHT22;1679;50.392;8.008;2022-07-04T15:36:29;24.00;94.20
3334;DHT22;1679;50.392;8.008;2022-07-04T15:38:54;23.90;94.60
3334;DHT22;1679;50.392;8.008;2022-07-04T15:41:20;24.10;94.80
3334;DHT22;1679;50.392;8.008;2022-07-04T15:43:45;24.20;95.60
3334;DHT22;1679;50.392;8.008;2022-07-04T15:46:11;24.30;95.70
3334;DHT22;1679;50.392;8.008;2022-07-04T15:48:38;24.40;95.00
3334;DHT22;1679;50.392;8.008;2022-07-04T15:51:04;24.30;93.20
3334;DHT22;1679;50.392;8.008;2022-07-04T15:53:30;24.30;94.40
3334;DHT22;1679;50.392;8.008;2022-07-04T15:55:56;24.30;93.70
3334;DHT22;1679;50.392;8.008;2022-07-04T15:58:21;24.20;93.80
3334;DHT22;1679;50.392;8.008;2022-07-04T16:00:47;24.10;94.70
3334;DHT22;1679;50.392;8.008;2022-07-04T16:03:12;24.20;94.70
3334;DHT22;1679;50.392;8.008;2022-07-04T16:05:44;24.20;95.00
3334;DHT22;1679;50.392;8.008;2022-07-04T16:08:09;24.30;94.30
3334;DHT22;1679;50.392;8.008;2022-07-04T16:10:35;24.20;93.60
3334;DHT22;1679;50.392;8.008;2022-07-04T16:13:01;24.20;94.20
3334;DHT22;1679;50.392;8.008;2022-07-04T16:15:28;24.20;93.80
3334;DHT22;1679;50.392;8.008;2022-07-04T16:17:53;24.20;93.60
3334;DHT22;1679;50.392;8.008;2022-07-04T16:20:19;24.10;93.50
3334;DHT22;1679;50.392;8.008;2022-07-04T16:22:47;24.10;94.90
3334;DHT22;1679;50.392;8.008;2022-07-04T16:25:13;24.20;93.90
3334;DHT22;1679;50.392;8.008;2022-07-04T16:27:39;24.20;94.00
3334;DHT22;1679;50.392;8.008;2022-07-04T16:30:05;24.20;93.60